sensor_id;sensor_type;location;lat;lon;timestamp;pressure;altitude;pressure_sealevel;temperature;humidity
25110;BME280;13507;49.030;11.940;2023-02-07T00:01:22;99014.72;;;18.36;42.95
25110;BME280;13507;49.030;11.940;2023-02-07T00:02:44;99014.13;;;18.34;42.63
25110;BME280;13507;49.030;11.940;2023-02-07T00:04:07;99006.16;;;18.34;42.88
25110;BME280;13507;49.030;11.940;2023-02-07T00:05:28;99006.16;;;18.34;42.77
25110;BME280;13507;49.030;11.940;2023-02-07T00:06:49;99002.69;;;18.33;43.10
25110;BME280;13507;49.030;11.940;2023-02-07T00:08:13;98998.41;;;18.32;43.15
25110;BME280;13507;49.030;11.940;2023-02-07T00:09:35;98996.56;;;18.33;43.46
25110;BME280;13507;49.030;11.940;2023-02-07T00:11:03;98994.47;;;18.35;42.98
25110;BME280;13507;49.030;11.940;2023-02-07T00:12:24;98990.44;;;18.32;43.25
25110;BME280;13507;49.030;11.940;2023-02-07T00:13:47;98991.22;;;18.33;43.29
25110;BME280;13507;49.030;11.940;2023-02-07T00:15:09;98993.09;;;18.32;42.85
25110;BME280;13507;49.030;11.940;2023-02-07T00:16:31;98988.78;;;18.31;42.80
25110;BME280;13507;49.030;11.940;2023-02-07T00:17:51;98991.66;;;18.30;42.75
25110;BME280;13507;49.030;11.940;2023-02-07T00:19:12;98988.00;;;18.31;42.74
25110;BME280;13507;49.030;11.940;2023-02-07T00:20:34;98986.13;;;18.31;43.34
25110;BME280;13507;49.030;11.940;2023-02-07T00:21:58;98988.78;;;18.31;42.76
25110;BME280;13507;49.030;11.940;2023-02-07T00:23:19;98999.44;;;18.31;43.08
25110;BME280;13507;49.030;11.940;2023-02-07T00:24:43;98994.47;;;18.35;43.76
25110;BME280;13507;49.030;11.940;2023-02-07T00:26:11;98994.47;;;18.35;43.44
25110;BME280;13507;49.030;11.940;2023-02-07T00:27:35;99005.94;;;18.35;43.21
25110;BME280;13507;49.030;11.940;2023-02-07T00:28:56;99001.66;;;18.34;43.14
25110;BME280;13507;49.030;11.940;2023-02-07T00:30:18;99014.03;;;18.29;43.36
25110;BME280;13507;49.030;11.940;2023-02-07T00:31:39;99019.47;;;18.34;43.32
25110;BME280;13507;49.030;11.940;2023-02-07T00:33:01;99014.97;;;18.34;43.27
25110;BME280;13507;49.030;11.940;2023-02-07T00:34:22;99010.22;;;18.36;43.34
25110;BME280;13507;49.030;11.940;2023-02-07T00:35:43;99014.97;;;18.34;42.96
25110;BME280;13507;49.030;11.940;2023-02-07T00:37:07;99002.69;;;18.33;43.42
25110;BME280;13507;49.030;11.940;2023-02-07T00:38:28;99002.53;;;18.28;42.90
25110;BME280;13507;49.030;11.940;2023-02-07T00:39:49;99006.84;;;18.29;43.00
25110;BME280;13507;49.030;11.940;2023-02-07T00:41:13;99003.38;;;18.29;43.42
25110;BME280;13507;49.030;11.940;2023-02-07T00:42:34;99001.88;;;18.33;43.42
25110;BME280;13507;49.030;11.940;2023-02-07T00:43:55;99022.00;;;18.29;43.25
25110;BME280;13507;49.030;11.940;2023-02-07T00:45:18;99029.53;;;18.32;42.53
25110;BME280;13507;49.030;11.940;2023-02-07T00:46:40;99012.16;;;18.29;42.83
25110;BME280;13507;49.030;11.940;2023-02-07T00:48:04;99020.84;;;18.24;42.66
25110;BME280;13507;49.030;11.940;2023-02-07T00:49:28;99024.66;;;18.29;43.13
25110;BME280;13507;49.030;11.940;2023-02-07T00:50:50;99022.44;;;18.26;43.20
25110;BME280;13507;49.030;11.940;2023-02-07T00:52:11;99015.84;;;18.28;42.73
25110;BME280;13507;49.030;11.940;2023-02-07T00:53:32;99012.38;;;18.28;43.41
25110;BME280;13507;49.030;11.940;2023-02-07T00:54:54;99006.25;;;18.27;43.58
25110;BME280;13507;49.030;11.940;2023-02-07T00:56:19;98999.88;;;18.28;43.52
25110;BME280;13507;49.030;11.940;2023-02-07T00:57:41;98991.09;;;18.28;43.47
25110;BME280;13507;49.030;11.940;2023-02-07T00:59:02;98980.81;;;18.31;42.87
25110;BME280;13507;49.030;11.940;2023-02-07T01:00:23;98975.13;;;18.28;42.90
25110;BME280;13507;49.030;11.940;2023-02-07T01:01:44;98979.16;;;18.30;43.81
25110;BME280;13507;49.030;11.940;2023-02-07T01:03:05;98981.25;;;18.28;43.39
25110;BME280;13507;49.030;11.940;2023-02-07T01:04:32;98975.91;;;18.28;43.47
25110;BME280;13507;49.030;11.940;2023-02-07T01:05:53;98986.34;;;18.30;42.97
25110;BME280;13507;49.030;11.940;2023-02-07T01:07:18;99003.59;;;18.27;42.95
25110;BME280;13507;49.030;11.940;2023-02-07T01:08:41;99010.09;;;18.31;43.56
25110;BME280;13507;49.030;11.940;2023-02-07T01:10:03;99003.38;;;18.29;43.34
25110;BME280;13507;49.030;11.940;2023-02-07T01:11:28;99000.94;;;18.27;43.18
25110;BME280;13507;49.030;11.940;2023-02-07T01:12:50;99003.81;;;18.26;43.34
25110;BME280;13507;49.030;11.940;2023-02-07T01:14:12;98998.06;;;18.29;42.94
25110;BME280;13507;49.030;11.940;2023-02-07T01:15:35;98984.97;;;18.27;43.44
25110;BME280;13507;49.030;11.940;2023-02-07T01:16:57;98990.72;;;18.24;42.89
25110;BME280;13507;49.030;11.940;2023-02-07T01:18:18;98996.28;;;18.22;43.72
25110;BME280;13507;49.030;11.940;2023-02-07T01:19:42;99001.97;;;18.26;43.18
25110;BME280;13507;49.030;11.940;2023-02-07T01:21:12;99000.13;;;18.27;43.29
25110;BME280;13507;49.030;11.940;2023-02-07T01:22:34;98995.38;;;18.29;43.48
25110;BME280;13507;49.030;11.940;2023-02-07T01:23:56;98988.19;;;18.29;43.15
25110;BME280;13507;49.030;11.940;2023-02-07T01:25:20;98992.34;;;18.25;43.43
25110;BME280;13507;49.030;11.940;2023-02-07T01:26:43;98991.09;;;18.28;43.19
25110;BME280;13507;49.030;11.940;2023-02-07T01:28:07;98993.97;;;18.26;43.70
25110;BME280;13507;49.030;11.940;2023-02-07T01:29:28;98986.81;;;18.27;42.52
25110;BME280;13507;49.030;11.940;2023-02-07T01:30:49;98991.09;;;18.28;43.09
25110;BME280;13507;49.030;11.940;2023-02-07T01:32:10;98988.44;;;18.28;43.06
25110;BME280;13507;49.030;11.940;2023-02-07T01:33:32;99001.72;;;18.28;43.06
25110;BME280;13507;49.030;11.940;2023-02-07T01:34:53;99008.34;;;18.25;43.02
25110;BME280;13507;49.030;11.940;2023-02-07T01:36:15;99003.00;;;18.25;43.22
25110;BME280;13507;49.030;11.940;2023-02-07T01:37:37;99006.25;;;18.27;43.09
25110;BME280;13507;49.030;11.940;2023-02-07T01:38:57;99012.03;;;18.24;43.17
25110;BME280;13507;49.030;11.940;2023-02-07T01:40:19;99016.09;;;18.27;42.80
25110;BME280;13507;49.030;11.940;2023-02-07T01:41:43;99012.84;;;18.24;43.36
25110;BME280;13507;49.030;11.940;2023-02-07T01:43:12;99021.75;;;18.30;43.59
25110;BME280;13507;49.030;11.940;2023-02-07T01:44:58;99017.72;;;18.28;42.77
25110;BME280;13507;49.030;11.940;2023-02-07T01:46:19;99017.13;;;18.26;43.42
25110;BME280;13507;49.030;11.940;2023-02-07T01:47:41;99015.50;;;18.24;43.14
25110;BME280;13507;49.030;11.940;2023-02-07T01:49:02;99022.88;;;18.22;42.79
25110;BME280;13507;49.030;11.940;2023-02-07T01:50:25;99016.91;;;18.27;43.19
25110;BME280;13507;49.030;11.940;2023-02-07T01:51:52;99001.00;;;18.20;42.72
25110;BME280;13507;49.030;11.940;2023-02-07T01:53:18;98996.28;;;18.22;43.00
25110;BME280;13507;49.030;11.940;2023-02-07T01:54:43;98998.94;;;18.22;43.57
25110;BME280;13507;49.030;11.940;2023-02-07T01:56:11;99004.88;;;18.24;43.21
25110;BME280;13507;49.030;11.940;2023-02-07T01:57:55;98998.50;;;18.26;42.80
25110;BME280;13507;49.030;11.940;2023-02-07T01:59:17;98996.28;;;18.22;42.97
25110;BME280;13507;49.030;11.940;2023-02-07T02:00:38;98994.84;;;18.20;43.16
25110;BME280;13507;49.030;11.940;2023-02-07T02:02:01;98998.34;;;18.20;43.27
25110;BME280;13507;49.030;11.940;2023-02-07T02:03:26;98990.94;;;18.22;42.86
25110;BME280;13507;49.030;11.940;2023-02-07T02:04:50;98986.66;;;18.21;42.73
25110;BME280;13507;49.030;11.940;2023-02-07T02:06:12;98983.97;;;18.21;42.77
25110;BME280;13507;49.030;11.940;2023-02-07T02:07:36;98982.59;;;18.19;42.83
25110;BME280;13507;49.030;11.940;2023-02-07T02:08:59;98980.50;;;18.21;43.31
25110;BME280;13507;49.030;11.940;2023-02-07T02:10:23;98982.13;;;18.22;42.98
25110;BME280;13507;49.030;11.940;2023-02-07T02:12:05;98993.16;;;18.26;42.85
25110;BME280;13507;49.030;11.940;2023-02-07T02:13:39;98999.06;;;18.28;42.61
25110;BME280;13507;49.030;11.940;2023-02-07T02:15:15;99004.88;;;18.24;42.96
25110;BME280;13507;49.030;11.940;2023-02-07T02:16:44;99009.94;;;18.26;43.12
25110;BME280;13507;49.030;11.940;2023-02-07T02:18:19;99014.06;;;18.22;42.37
25110;BME280;13507;49.030;11.940;2023-02-07T02:20:07;99011.78;;;18.26;42.62
25110;BME280;13507;49.030;11.940;2023-02-07T02:21:58;99008.34;;;18.25;43.00
25110;BME280;13507;49.030;11.940;2023-02-07T02:23:38;99008.34;;;18.25;42.46
25110;BME280;13507;49.030;11.940;2023-02-07T02:25:19;99013.84;;;18.23;42.91
25110;BME280;13507;49.030;11.940;2023-02-07T02:26:54;99016.31;;;18.25;42.67
25110;BME280;13507;49.030;11.940;2023-02-07T02:34:05;98996.03;;;18.24;43.13
25110;BME280;13507;49.030;11.940;2023-02-07T02:35:34;98991.16;;;18.21;42.74
25110;BME280;13507;49.030;11.940;2023-02-07T02:37:09;98997.97;;;18.17;42.83
25110;BME280;13507;49.030;11.940;2023-02-07T02:38:43;98995.69;;;18.20;42.44
25110;BME280;13507;49.030;11.940;2023-02-07T02:40:10;98985.25;;;18.19;42.85
25110;BME280;13507;49.030;11.940;2023-02-07T02:41:38;98982.38;;;18.20;42.66
25110;BME280;13507;49.030;11.940;2023-02-07T02:43:05;98983.97;;;18.21;42.62
25110;BME280;13507;49.030;11.940;2023-02-07T02:44:35;98984.78;;;18.22;42.55
25110;BME280;13507;49.030;11.940;2023-02-07T02:46:00;98982.81;;;18.17;43.19
25110;BME280;13507;49.030;11.940;2023-02-07T02:47:27;98977.06;;;18.20;43.04
25110;BME280;13507;49.030;11.940;2023-02-07T02:48:50;98981.22;;;18.16;42.64
25110;BME280;13507;49.030;11.940;2023-02-07T02:50:20;98979.72;;;18.20;43.21
25110;BME280;13507;49.030;11.940;2023-02-07T02:51:41;98981.78;;;18.18;42.95
25110;BME280;13507;49.030;11.940;2023-02-07T02:53:05;98992.44;;;18.18;42.88
25110;BME280;13507;49.030;11.940;2023-02-07T02:54:30;98980.97;;;18.18;42.89
25110;BME280;13507;49.030;11.940;2023-02-07T02:57:59;98985.84;;;18.21;42.61
25110;BME280;13507;49.030;11.940;2023-02-07T02:59:45;98994.41;;;18.23;42.86
25110;BME280;13507;49.030;11.940;2023-02-07T03:01:19;98990.09;;;18.22;42.62
25110;BME280;13507;49.030;11.940;2023-02-07T03:02:51;98985.84;;;18.21;42.49
25110;BME280;13507;49.030;11.940;2023-02-07T03:04:41;98988.50;;;18.21;42.88
25110;BME280;13507;49.030;11.940;2023-02-07T03:06:19;98990.09;;;18.22;42.44
25110;BME280;13507;49.030;11.940;2023-02-07T03:07:47;98984.66;;;18.17;42.55
25110;BME280;13507;49.030;11.940;2023-02-07T03:09:19;98983.88;;;18.16;42.59
25110;BME280;13507;49.030;11.940;2023-02-07T03:10:54;98979.94;;;18.19;42.55
25110;BME280;13507;49.030;11.940;2023-02-07T03:12:21;98976.81;;;18.22;42.74
25110;BME280;13507;49.030;11.940;2023-02-07T03:13:53;98977.28;;;18.19;42.64
25110;BME280;13507;49.030;11.940;2023-02-07T03:15:18;98973.44;;;18.15;42.69
25110;BME280;13507;49.030;11.940;2023-02-07T03:16:51;98973.44;;;18.15;42.03
25110;BME280;13507;49.030;11.940;2023-02-07T03:18:19;98971.59;;;18.15;42.68
25110;BME280;13507;49.030;11.940;2023-02-07T03:19:48;98981.53;;;18.20;43.25
25110;BME280;13507;49.030;11.940;2023-02-07T03:21:21;98978.66;;;18.21;43.43
25110;BME280;13507;49.030;11.940;2023-02-07T03:22:45;98984.53;;;18.12;44.10
25110;BME280;13507;49.030;11.940;2023-02-07T03:24:10;98975.88;;;18.16;43.73
25110;BME280;13507;49.030;11.940;2023-02-07T03:25:34;98971.44;;;18.10;45.48
25110;BME280;13507;49.030;11.940;2023-02-07T03:26:59;98968.19;;;18.08;46.24
25110;BME280;13507;49.030;11.940;2023-02-07T03:28:21;98970.53;;;18.04;46.08
25110;BME280;13507;49.030;11.940;2023-02-07T03:29:49;98970.00;;;17.96;46.58
25110;BME280;13507;49.030;11.940;2023-02-07T03:31:14;98967.28;;;18.02;46.60
25110;BME280;13507;49.030;11.940;2023-02-07T03:32:39;98969.84;;;18.09;46.32
25110;BME280;13507;49.030;11.940;2023-02-07T03:34:07;98964.41;;;18.16;46.14
25110;BME280;13507;49.030;11.940;2023-02-07T03:35:36;98963.75;;;18.20;46.20
25110;BME280;13507;49.030;11.940;2023-02-07T03:37:09;98960.78;;;18.29;45.80
25110;BME280;13507;49.030;11.940;2023-02-07T03:38:32;98962.16;;;18.31;45.59
25110;BME280;13507;49.030;11.940;2023-02-07T03:39:53;98967.50;;;18.31;45.80
25110;BME280;13507;49.030;11.940;2023-02-07T03:41:18;98965.41;;;18.33;45.75
25110;BME280;13507;49.030;11.940;2023-02-07T03:42:44;98962.97;;;18.32;45.45
25110;BME280;13507;49.030;11.940;2023-02-07T03:44:08;98959.88;;;18.35;45.64
25110;BME280;13507;49.030;11.940;2023-02-07T03:45:33;98959.28;;;18.33;45.57
25110;BME280;13507;49.030;11.940;2023-02-07T03:46:56;98961.47;;;18.36;45.66
25110;BME280;13507;49.030;11.940;2023-02-07T03:48:17;98957.22;;;18.35;45.56
25110;BME280;13507;49.030;11.940;2023-02-07T03:49:38;98949.00;;;18.36;45.58
25110;BME280;13507;49.030;11.940;2023-02-07T03:51:00;98951.06;;;18.34;45.63
25110;BME280;13507;49.030;11.940;2023-02-07T03:52:25;98954.53;;;18.35;46.11
25110;BME280;13507;49.030;11.940;2023-02-07T03:53:49;98961.72;;;18.34;45.86
25110;BME280;13507;49.030;11.940;2023-02-07T03:55:11;98967.84;;;18.35;45.59
25110;BME280;13507;49.030;11.940;2023-02-07T03:56:33;98974.19;;;18.34;45.93
25110;BME280;13507;49.030;11.940;2023-02-07T03:57:54;98981.97;;;18.35;45.70
25110;BME280;13507;49.030;11.940;2023-02-07T03:59:15;98973.19;;;18.35;45.96
25110;BME280;13507;49.030;11.940;2023-02-07T04:00:38;98980.09;;;18.36;46.08
25110;BME280;13507;49.030;11.940;2023-02-07T04:01:59;98969.47;;;18.36;45.71
25110;BME280;13507;49.030;11.940;2023-02-07T04:03:20;98970.72;;;18.33;46.13
25110;BME280;13507;49.030;11.940;2023-02-07T04:04:41;98963.34;;;18.35;45.87
25110;BME280;13507;49.030;11.940;2023-02-07T04:06:03;98961.16;;;18.32;45.94
25110;BME280;13507;49.030;11.940;2023-02-07T04:07:27;98966.22;;;18.34;46.10
25110;BME280;13507;49.030;11.940;2023-02-07T04:08:49;98969.94;;;18.33;46.35
25110;BME280;13507;49.030;11.940;2023-02-07T04:10:13;98967.28;;;18.33;45.74
25110;BME280;13507;49.030;11.940;2023-02-07T04:11:34;98972.81;;;18.31;45.67
25110;BME280;13507;49.030;11.940;2023-02-07T04:12:58;98975.91;;;18.28;46.17
25110;BME280;13507;49.030;11.940;2023-02-07T04:14:19;98971.88;;;18.26;46.05
25110;BME280;13507;49.030;11.940;2023-02-07T04:15:41;98975.91;;;18.28;45.92
25110;BME280;13507;49.030;11.940;2023-02-07T04:17:04;98970.59;;;18.28;45.69
25110;BME280;13507;49.030;11.940;2023-02-07T04:18:28;98971.88;;;18.26;46.19
25110;BME280;13507;49.030;11.940;2023-02-07T04:19:52;98973.91;;;18.23;46.12
25110;BME280;13507;49.030;11.940;2023-02-07T04:21:12;98976.38;;;18.25;45.82
25110;BME280;13507;49.030;11.940;2023-02-07T04:22:36;98972.69;;;18.26;46.33
25110;BME280;13507;49.030;11.940;2023-02-07T04:23:57;98978.84;;;18.27;46.29
25110;BME280;13507;49.030;11.940;2023-02-07T04:25:18;98979.44;;;18.10;43.40
25110;BME280;13507;49.030;11.940;2023-02-07T04:26:44;98985.78;;;18.09;45.70
25110;BME280;13507;49.030;11.940;2023-02-07T04:28:06;98976.09;;;18.15;46.12
25110;BME280;13507;49.030;11.940;2023-02-07T04:29:29;98974.09;;;18.10;46.99
25110;BME280;13507;49.030;11.940;2023-02-07T04:30:50;98975.88;;;18.16;47.30
25110;BME280;13507;49.030;11.940;2023-02-07T04:32:11;98972.97;;;18.18;46.82
25110;BME280;13507;49.030;11.940;2023-02-07T04:33:32;98974.59;;;18.19;46.74
25110;BME280;13507;49.030;11.940;2023-02-07T04:34:53;98978.88;;;18.20;40.31
25110;BME280;13507;49.030;11.940;2023-02-07T04:36:15;98988.69;;;18.08;37.81
25110;BME280;13507;49.030;11.940;2023-02-07T04:37:41;98986.03;;;18.08;40.88
25110;BME280;13507;49.030;11.940;2023-02-07T04:39:04;98998.19;;;18.15;42.07
25110;BME280;13507;49.030;11.940;2023-02-07T04:40:25;99001.00;;;18.20;44.98
25110;BME280;13507;49.030;11.940;2023-02-07T04:41:46;98997.69;;;18.25;44.11
25110;BME280;13507;49.030;11.940;2023-02-07T04:43:07;99000.53;;;18.23;44.51
25110;BME280;13507;49.030;11.940;2023-02-07T04:44:29;98999.66;;;18.30;44.73
25110;BME280;13507;49.030;11.940;2023-02-07T04:45:50;98996.56;;;18.33;45.12
25110;BME280;13507;49.030;11.940;2023-02-07T04:47:12;98996.91;;;18.36;44.58
25110;BME280;13507;49.030;11.940;2023-02-07T04:48:34;99002.00;;;18.38;44.48
25110;BME280;13507;49.030;11.940;2023-02-07T04:49:56;99003.63;;;18.39;44.96
25110;BME280;13507;49.030;11.940;2023-02-07T04:51:17;99006.41;;;18.44;45.05
25110;BME280;13507;49.030;11.940;2023-02-07T04:52:41;99001.06;;;18.44;44.91
25110;BME280;13507;49.030;11.940;2023-02-07T04:54:02;99000.63;;;18.47;45.38
25110;BME280;13507;49.030;11.940;2023-02-07T04:55:26;99015.56;;;18.48;45.58
25110;BME280;13507;49.030;11.940;2023-02-07T04:56:47;99005.03;;;18.53;44.96
25110;BME280;13507;49.030;11.940;2023-02-07T04:58:08;99008.19;;;18.50;45.08
25110;BME280;13507;49.030;11.940;2023-02-07T04:59:30;99003.88;;;18.49;44.83
25110;BME280;13507;49.030;11.940;2023-02-07T05:00:51;98996.69;;;18.50;45.02
25110;BME280;13507;49.030;11.940;2023-02-07T05:02:12;98997.84;;;18.54;44.97
25110;BME280;13507;49.030;11.940;2023-02-07T05:03:33;98994.97;;;18.55;44.79
25110;BME280;13507;49.030;11.940;2023-02-07T05:04:54;98989.44;;;18.57;44.71
25110;BME280;13507;49.030;11.940;2023-02-07T05:06:18;98993.69;;;18.58;45.34
25110;BME280;13507;49.030;11.940;2023-02-07T05:07:41;98990.44;;;18.56;45.19
25110;BME280;13507;49.030;11.940;2023-02-07T05:09:03;98985.38;;;18.54;44.87
25110;BME280;13507;49.030;11.940;2023-02-07T05:10:24;98985.38;;;18.54;45.35
25110;BME280;13507;49.030;11.940;2023-02-07T05:11:44;98984.69;;;18.59;45.58
25110;BME280;13507;49.030;11.940;2023-02-07T05:13:06;98982.00;;;18.59;45.46
25110;BME280;13507;49.030;11.940;2023-02-07T05:14:27;98979.56;;;18.57;45.27
25110;BME280;13507;49.030;11.940;2023-02-07T05:15:48;98981.53;;;18.62;45.49
25110;BME280;13507;49.030;11.940;2023-02-07T05:17:09;98975.75;;;18.53;45.63
25110;BME280;13507;49.030;11.940;2023-02-07T05:18:32;98986.28;;;18.60;45.25
25110;BME280;13507;49.030;11.940;2023-02-07T05:19:54;98981.78;;;18.60;45.62
25110;BME280;13507;49.030;11.940;2023-02-07T05:21:15;98981.53;;;18.62;45.65
25110;BME280;13507;49.030;11.940;2023-02-07T05:22:40;98979.81;;;18.68;45.94
25110;BME280;13507;49.030;11.940;2023-02-07T05:24:02;98978.56;;;18.58;46.02
25110;BME280;13507;49.030;11.940;2023-02-07T05:25:26;98977.06;;;18.62;45.99
25110;BME280;13507;49.030;11.940;2023-02-07T05:26:47;98976.47;;;18.60;45.78
25110;BME280;13507;49.030;11.940;2023-02-07T05:28:10;98983.63;;;18.60;46.09
25110;BME280;13507;49.030;11.940;2023-02-07T05:29:34;98987.13;;;18.60;46.20
25110;BME280;13507;49.030;11.940;2023-02-07T05:30:55;98989.09;;;18.65;46.42
25110;BME280;13507;49.030;11.940;2023-02-07T05:32:19;98996.84;;;18.67;46.26
25110;BME280;13507;49.030;11.940;2023-02-07T05:33:42;99009.00;;;18.62;46.14
25110;BME280;13507;49.030;11.940;2023-02-07T05:35:04;99005.66;;;18.67;46.38
25110;BME280;13507;49.030;11.940;2023-02-07T05:36:29;99002.19;;;18.67;46.05
25110;BME280;13507;49.030;11.940;2023-02-07T05:37:52;98993.84;;;18.63;46.60
25110;BME280;13507;49.030;11.940;2023-02-07T05:39:13;98990.13;;;18.64;46.50
25110;BME280;13507;49.030;11.940;2023-02-07T05:40:35;99001.38;;;18.66;46.13
25110;BME280;13507;49.030;11.940;2023-02-07T05:41:59;99005.28;;;18.63;46.46
25110;BME280;13507;49.030;11.940;2023-02-07T05:43:20;99011.09;;;18.60;46.62
25110;BME280;13507;49.030;11.940;2023-02-07T05:44:44;99003.53;;;18.57;46.59
25110;BME280;13507;49.030;11.940;2023-02-07T05:46:05;99001.56;;;18.53;46.34
25110;BME280;13507;49.030;11.940;2023-02-07T05:47:29;99003.06;;;18.49;46.53
25110;BME280;13507;49.030;11.940;2023-02-07T05:48:50;99004.25;;;18.53;46.61
25110;BME280;13507;49.030;11.940;2023-02-07T05:50:11;99007.56;;;18.48;47.13
25110;BME280;13507;49.030;11.940;2023-02-07T05:51:33;99008.41;;;18.49;47.19
25110;BME280;13507;49.030;11.940;2023-02-07T05:53:01;99004.47;;;18.51;46.89
25110;BME280;13507;49.030;11.940;2023-02-07T05:54:25;99004.31;;;18.46;47.10
25110;BME280;13507;49.030;11.940;2023-02-07T05:55:50;99002.50;;;18.47;46.93
25110;BME280;13507;49.030;11.940;2023-02-07T05:57:11;99019.81;;;18.37;47.42
25110;BME280;13507;49.030;11.940;2023-02-07T05:58:35;99011.41;;;18.40;47.44
25110;BME280;13507;49.030;11.940;2023-02-07T05:59:56;99013.00;;;18.41;47.40
25110;BME280;13507;49.030;11.940;2023-02-07T06:01:20;99018.31;;;18.41;47.12
25110;BME280;13507;49.030;11.940;2023-02-07T06:02:42;99018.91;;;18.43;46.90
25110;BME280;13507;49.030;11.940;2023-02-07T06:04:06;99023.31;;;18.50;46.98
25110;BME280;13507;49.030;11.940;2023-02-07T06:05:26;99019.81;;;18.37;47.43
25110;BME280;13507;49.030;11.940;2023-02-07T06:06:48;99028.88;;;18.36;47.12
25110;BME280;13507;49.030;11.940;2023-02-07T06:08:14;99028.16;;;18.41;47.04
25110;BME280;13507;49.030;11.940;2023-02-07T06:09:38;99036.16;;;18.41;47.06
25110;BME280;13507;49.030;11.940;2023-02-07T06:10:59;99045.31;;;18.45;46.73
25110;BME280;13507;49.030;11.940;2023-02-07T06:12:19;99037.88;;;18.35;47.21
25110;BME280;13507;49.030;11.940;2023-02-07T06:13:40;99038.13;;;18.46;46.42
25110;BME280;13507;49.030;11.940;2023-02-07T06:15:04;99039.53;;;18.48;47.24
25110;BME280;13507;49.030;11.940;2023-02-07T06:16:25;99042.44;;;18.47;46.55
25110;BME280;13507;49.030;11.940;2023-02-07T06:17:46;99043.47;;;18.46;46.64
25110;BME280;13507;49.030;11.940;2023-02-07T06:19:10;99042.81;;;18.50;46.74
25110;BME280;13507;49.030;11.940;2023-02-07T06:20:31;99048.19;;;18.43;46.89
25110;BME280;13507;49.030;11.940;2023-02-07T06:21:53;99046.94;;;18.46;46.84
25110;BME280;13507;49.030;11.940;2023-02-07T06:23:16;99051.00;;;18.49;46.35
25110;BME280;13507;49.030;11.940;2023-02-07T06:24:38;99053.75;;;18.42;47.16
25110;BME280;13507;49.030;11.940;2023-02-07T06:25:59;99066.41;;;18.47;46.75
25110;BME280;13507;49.030;11.940;2023-02-07T06:27:21;99063.84;;;18.52;46.21
25110;BME280;13507;49.030;11.940;2023-02-07T06:28:42;99058.78;;;18.50;46.68
25110;BME280;13507;49.030;11.940;2023-02-07T06:30:03;99054.25;;;18.51;46.22
25110;BME280;13507;49.030;11.940;2023-02-07T06:31:24;99056.44;;;18.54;46.30
25110;BME280;13507;49.030;11.940;2023-02-07T06:32:46;99054.63;;;18.54;46.32
25110;BME280;13507;49.030;11.940;2023-02-07T06:34:09;99050.78;;;18.50;46.15
25110;BME280;13507;49.030;11.940;2023-02-07T06:35:31;99046.84;;;18.53;46.16
25110;BME280;13507;49.030;11.940;2023-02-07T06:36:54;99041.53;;;18.53;46.51
25110;BME280;13507;49.030;11.940;2023-02-07T06:38:18;99047.66;;;18.53;46.14
25110;BME280;13507;49.030;11.940;2023-02-07T06:39:42;99060.59;;;18.50;46.70
25110;BME280;13507;49.030;11.940;2023-02-07T06:41:03;99047.28;;;18.50;46.78
25110;BME280;13507;49.030;11.940;2023-02-07T06:42:24;99052.75;;;18.55;46.07
25110;BME280;13507;49.030;11.940;2023-02-07T06:43:46;99057.34;;;18.48;46.97
25110;BME280;13507;49.030;11.940;2023-02-07T06:45:08;99058.03;;;18.43;46.71
25110;BME280;13507;49.030;11.940;2023-02-07T06:46:31;99059.06;;;18.42;47.13
25110;BME280;13507;49.030;11.940;2023-02-07T06:47:53;99063.38;;;18.43;46.75
25110;BME280;13507;49.030;11.940;2023-02-07T06:49:14;99071.84;;;18.52;46.55
25110;BME280;13507;49.030;11.940;2023-02-07T06:50:35;99074.28;;;18.53;46.61
25110;BME280;13507;49.030;11.940;2023-02-07T06:51:59;99070.31;;;18.44;46.48
25110;BME280;13507;49.030;11.940;2023-02-07T06:53:23;99067.78;;;18.49;46.84
25110;BME280;13507;49.030;11.940;2023-02-07T06:54:46;99063.28;;;18.50;46.87
25110;BME280;13507;49.030;11.940;2023-02-07T06:56:10;99063.03;;;18.51;46.58
25110;BME280;13507;49.030;11.940;2023-02-07T06:57:31;99068.22;;;18.46;46.43
25110;BME280;13507;49.030;11.940;2023-02-07T06:58:52;99068.38;;;18.51;46.64
25110;BME280;13507;49.030;11.940;2023-02-07T07:00:13;99070.94;;;18.58;46.22
25110;BME280;13507;49.030;11.940;2023-02-07T07:01:35;99073.47;;;18.53;46.63
25110;BME280;13507;49.030;11.940;2023-02-07T07:02:56;99058.78;;;18.50;46.24
25110;BME280;13507;49.030;11.940;2023-02-07T07:04:20;99076.94;;;18.53;46.64
25110;BME280;13507;49.030;11.940;2023-02-07T07:05:42;99076.72;;;18.55;46.79
25110;BME280;13507;49.030;11.940;2023-02-07T07:07:03;99074.38;;;18.47;46.80
25110;BME280;13507;49.030;11.940;2023-02-07T07:08:27;99073.13;;;18.49;46.21
25110;BME280;13507;49.030;11.940;2023-02-07T07:09:48;99077.16;;;18.52;46.87
25110;BME280;13507;49.030;11.940;2023-02-07T07:11:11;99082.59;;;18.45;47.08
25110;BME280;13507;49.030;11.940;2023-02-07T07:12:32;99078.88;;;18.46;46.62
25110;BME280;13507;49.030;11.940;2023-02-07T07:13:56;99079.34;;;18.43;46.73
25110;BME280;13507;49.030;11.940;2023-02-07T07:15:17;99078.53;;;18.42;46.64
25110;BME280;13507;49.030;11.940;2023-02-07T07:16:38;99092.44;;;18.44;46.63
25110;BME280;13507;49.030;11.940;2023-02-07T07:17:59;99080.63;;;18.40;47.03
25110;BME280;13507;49.030;11.940;2023-02-07T07:19:23;99092.06;;;18.41;46.42
25110;BME280;13507;49.030;11.940;2023-02-07T07:20:44;99095.75;;;18.40;46.91
25110;BME280;13507;49.030;11.940;2023-02-07T07:22:08;99100.50;;;18.38;46.54
25110;BME280;13507;49.030;11.940;2023-02-07T07:23:32;99109.16;;;18.33;46.61
25110;BME280;13507;49.030;11.940;2023-02-07T07:24:53;99117.31;;;18.38;46.91
25110;BME280;13507;49.030;11.940;2023-02-07T07:26:15;99116.25;;;18.39;46.49
25110;BME280;13507;49.030;11.940;2023-02-07T07:27:38;99109.16;;;18.33;46.95